createdAt,value
2022-10-11T00:02:17.336Z,100.00
2022-10-11T00:07:42.298Z,100.00
2022-10-11T00:13:09.325Z,100.00
2022-10-11T00:18:34.362Z,100.00
2022-10-11T00:23:59.314Z,100.00
2022-10-11T00:29:27.334Z,100.00
2022-10-11T00:34:51.346Z,100.00
2022-10-11T00:40:20.330Z,100.00
2022-10-11T00:46:26.324Z,100.00
2022-10-11T00:51:59.420Z,100.00
2022-10-11T00:57:28.345Z,100.00
2022-10-11T01:02:53.346Z,100.00
2022-10-11T01:08:22.419Z,100.00
2022-10-11T01:13:57.377Z,100.00
2022-10-11T01:19:50.316Z,100.00
2022-10-11T01:25:38.423Z,100.00
2022-10-11T01:31:08.334Z,100.00
2022-10-11T01:42:00.358Z,100.00
2022-10-11T01:47:27.375Z,100.00
2022-10-11T01:52:54.375Z,100.00
2022-10-11T01:58:31.353Z,100.00
2022-10-11T02:04:07.376Z,100.00
2022-10-11T02:09:40.366Z,100.00
2022-10-11T02:15:07.374Z,100.00
2022-10-11T02:20:37.419Z,100.00
2022-10-11T02:26:03.740Z,100.00
2022-10-11T02:31:29.342Z,100.00
2022-10-11T02:37:08.393Z,100.00
2022-10-11T02:42:44.360Z,100.00
2022-10-11T02:48:10.393Z,100.00
2022-10-11T02:53:39.551Z,100.00
2022-10-11T02:59:04.413Z,100.00
2022-10-11T03:04:28.388Z,100.00
2022-10-11T03:09:56.387Z,100.00
2022-10-11T03:15:21.418Z,100.00
2022-10-11T03:20:46.411Z,100.00
2022-10-11T03:26:13.448Z,100.00
2022-10-11T03:31:38.422Z,100.00
2022-10-11T03:37:03.402Z,100.00
2022-10-11T03:42:38.429Z,100.00
2022-10-11T03:48:03.417Z,100.00
2022-10-11T03:53:28.411Z,100.00
2022-10-11T03:59:08.455Z,100.00
2022-10-11T04:04:33.518Z,100.00
2022-10-11T04:09:59.586Z,100.00
2022-10-11T04:21:26.638Z,100.00
2022-10-11T04:26:53.016Z,100.00
2022-10-11T04:32:19.450Z,100.00
2022-10-11T04:43:12.730Z,100.00
2022-10-11T04:48:41.582Z,100.00
2022-10-11T04:54:06.739Z,100.00
2022-10-11T04:59:39.546Z,100.00
2022-10-11T05:05:02.537Z,100.00
2022-10-11T05:10:30.628Z,100.00
2022-10-11T05:15:55.814Z,100.00
2022-10-11T05:21:27.509Z,100.00
2022-10-11T05:26:52.499Z,100.00
2022-10-11T05:32:20.438Z,100.00
2022-10-11T05:37:50.585Z,100.00
2022-10-11T05:43:16.694Z,100.00
2022-10-11T05:48:40.482Z,100.00
2022-10-11T05:54:09.515Z,100.00
2022-10-11T05:59:33.478Z,100.00
2022-10-11T06:04:58.486Z,100.00
2022-10-11T06:10:25.591Z,100.00
2022-10-11T06:15:50.559Z,100.00
2022-10-11T06:21:17.982Z,100.00
2022-10-11T06:26:45.930Z,100.00
2022-10-11T06:32:09.496Z,100.00
2022-10-11T06:37:34.524Z,100.00
2022-10-11T06:43:08.639Z,100.00
2022-10-11T06:48:33.514Z,100.00
2022-10-11T06:54:02.502Z,100.00
2022-10-11T06:59:30.543Z,100.00
2022-10-11T07:04:56.509Z,100.00
2022-10-11T07:10:21.528Z,100.00
2022-10-11T07:15:55.547Z,100.00
2022-10-11T07:21:22.548Z,100.00
2022-10-11T07:26:52.280Z,100.00
2022-10-11T07:32:20.542Z,100.00
2022-10-11T07:37:44.524Z,100.00
2022-10-11T07:43:17.565Z,100.00
2022-10-11T07:48:45.567Z,100.00
2022-10-11T07:54:11.523Z,100.00
2022-10-11T07:59:38.579Z,100.00
2022-10-11T08:05:10.558Z,100.00
2022-10-11T08:10:36.563Z,100.00
2022-10-11T08:16:01.737Z,100.00
2022-10-11T08:21:29.952Z,100.00
2022-10-11T08:26:56.602Z,100.00
2022-10-11T08:32:24.628Z,100.00
2022-10-11T08:37:52.616Z,100.00
2022-10-11T08:43:32.739Z,100.00
2022-10-11T08:49:02.457Z,100.00
2022-10-11T08:54:36.574Z,100.00
2022-10-11T09:00:16.587Z,100.00
2022-10-11T09:05:46.557Z,100.00
2022-10-11T09:11:24.569Z,100.00
2022-10-11T09:17:03.616Z,100.00
2022-10-11T09:22:35.592Z,100.00
2022-10-11T09:28:15.614Z,100.00
2022-10-11T09:33:43.706Z,100.00
2022-10-11T09:39:15.608Z,100.00
2022-10-11T09:44:46.626Z,100.00
2022-10-11T09:50:15.606Z,100.00
2022-10-11T09:55:43.633Z,100.00
2022-10-11T10:01:17.683Z,100.00
2022-10-11T10:06:42.581Z,100.00
2022-10-11T10:12:06.613Z,100.00
2022-10-11T10:17:34.593Z,100.00
2022-10-11T10:23:02.647Z,100.00
2022-10-11T10:28:30.627Z,100.00
2022-10-11T10:33:58.663Z,100.00
2022-10-11T10:39:36.622Z,100.00
2022-10-11T10:45:11.927Z,100.00
2022-10-11T10:50:51.635Z,100.00
2022-10-11T10:56:24.620Z,100.00
2022-10-11T11:02:15.758Z,100.00
2022-10-11T11:07:59.656Z,100.00
2022-10-11T11:13:32.636Z,100.00
2022-10-11T11:19:04.705Z,100.00
2022-10-11T11:24:48.642Z,100.00
2022-10-11T11:30:19.644Z,100.00
2022-10-11T11:35:51.670Z,100.00
2022-10-11T11:41:28.654Z,100.00
2022-10-11T11:46:58.686Z,100.00
2022-10-11T11:52:29.719Z,100.00
2022-10-11T11:58:07.722Z,100.00
2022-10-11T12:03:40.693Z,100.00
2022-10-11T12:09:11.681Z,100.00
2022-10-11T12:14:49.674Z,100.00
2022-10-11T12:20:28.683Z,100.00
2022-10-11T12:26:02.699Z,100.00
2022-10-11T12:31:36.703Z,100.00
2022-10-11T12:37:06.578Z,100.00
2022-10-11T12:42:47.670Z,100.00
2022-10-11T12:48:34.875Z,100.00
2022-10-11T12:54:27.422Z,100.00
2022-10-11T12:59:55.715Z,100.00
2022-10-11T13:05:31.735Z,99.76
2022-10-11T13:10:57.757Z,100.00
2022-10-11T13:16:27.742Z,100.00
2022-10-11T13:22:00.994Z,95.23
2022-10-11T13:27:33.727Z,96.80
2022-10-11T13:32:58.731Z,94.92
2022-10-11T13:38:35.734Z,85.06
2022-10-11T13:44:01.725Z,94.10
2022-10-11T13:49:46.764Z,85.96
2022-10-11T13:55:33.747Z,97.06
2022-10-11T14:01:09.773Z,87.86
2022-10-11T14:06:48.747Z,88.41
2022-10-11T14:12:45.729Z,83.14
2022-10-11T14:18:12.726Z,87.45
2022-10-11T14:23:36.814Z,91.48
2022-10-11T14:29:07.784Z,84.19
2022-10-11T14:34:35.769Z,88.91
2022-10-11T14:40:01.976Z,77.35
2022-10-11T14:45:29.745Z,74.29
2022-10-11T14:51:01.787Z,72.88
2022-10-11T14:56:26.434Z,76.85
2022-10-11T15:02:28.797Z,66.07
2022-10-11T15:07:54.924Z,69.53
2022-10-11T15:13:19.890Z,69.40
2022-10-11T15:18:46.795Z,71.42
2022-10-11T15:29:35.811Z,69.44
2022-10-11T15:35:03.864Z,68.84
2022-10-11T15:40:39.804Z,76.21
2022-10-11T15:46:20.832Z,77.11
2022-10-11T15:51:49.977Z,79.91
2022-10-11T15:57:13.806Z,81.64
2022-10-11T16:02:38.855Z,83.59
2022-10-11T16:08:05.869Z,93.41
2022-10-11T16:13:30.822Z,99.17
2022-10-11T16:18:56.274Z,100.00
2022-10-11T16:24:23.842Z,100.00
2022-10-11T16:29:47.817Z,100.00
2022-10-11T16:35:13.884Z,100.00
2022-10-11T16:40:44.838Z,100.00
2022-10-11T16:46:09.865Z,100.00
2022-10-11T16:51:34.862Z,100.00
2022-10-11T16:57:02.872Z,100.00
2022-10-11T17:02:32.674Z,100.00
2022-10-11T17:07:57.926Z,100.00
2022-10-11T17:13:25.862Z,100.00
2022-10-11T17:18:50.897Z,100.00
2022-10-11T17:24:15.871Z,100.00
2022-10-11T17:29:44.895Z,100.00
2022-10-11T17:35:10.867Z,100.00
2022-10-11T17:40:36.906Z,100.00
2022-10-11T17:46:13.886Z,100.00
2022-10-11T17:51:38.909Z,100.00
2022-10-11T17:57:02.942Z,100.00
2022-10-11T18:02:30.935Z,100.00
2022-10-11T18:07:55.917Z,100.00
2022-10-11T18:13:42.943Z,100.00
2022-10-11T18:19:23.909Z,100.00
2022-10-11T18:24:48.903Z,100.00
2022-10-11T18:30:15.916Z,100.00
2022-10-11T18:35:42.889Z,100.00
2022-10-11T18:41:13.872Z,100.00
2022-10-11T18:46:40.965Z,100.00
2022-10-11T18:52:09.179Z,100.00
2022-10-11T18:57:32.892Z,100.00
2022-10-11T19:02:58.033Z,100.00
2022-10-11T19:08:24.929Z,100.00
2022-10-11T19:13:49.938Z,100.00
2022-10-11T19:19:13.883Z,100.00
2022-10-11T19:24:43.110Z,100.00
2022-10-11T19:30:06.926Z,100.00
2022-10-11T19:35:32.302Z,100.00
2022-10-11T19:40:59.066Z,100.00
2022-10-11T19:46:49.780Z,100.00
2022-10-11T19:52:11.261Z,100.00
2022-10-11T19:57:38.926Z,100.00
2022-10-11T20:03:04.241Z,100.00
2022-10-11T20:08:29.955Z,100.00
2022-10-11T20:13:57.019Z,100.00
2022-10-11T20:19:26.171Z,100.00
2022-10-11T20:24:49.922Z,100.00
2022-10-11T20:30:20.989Z,100.00
2022-10-11T20:35:44.966Z,100.00
2022-10-11T20:41:13.974Z,100.00
2022-10-11T20:46:43.007Z,100.00
2022-10-11T20:52:07.977Z,100.00
2022-10-11T20:57:32.198Z,100.00
2022-10-11T21:03:01.957Z,100.00
2022-10-11T21:08:26.023Z,100.00
2022-10-11T21:13:51.961Z,100.00
2022-10-11T21:19:18.997Z,100.00
2022-10-11T21:24:44.178Z,100.00
2022-10-11T21:30:07.981Z,100.00
2022-10-11T21:35:35.973Z,100.00
2022-10-11T21:40:59.998Z,100.00
2022-10-11T21:46:47.700Z,100.00
2022-10-11T21:52:15.050Z,100.00
2022-10-11T21:57:40.074Z,100.00
2022-10-11T22:03:06.985Z,100.00
2022-10-11T22:08:35.041Z,100.00
2022-10-11T22:13:59.055Z,100.00
2022-10-11T22:19:23.986Z,100.00
2022-10-11T22:24:51.033Z,100.00
2022-10-11T22:30:18.020Z,100.00
2022-10-11T22:35:41.982Z,100.00
2022-10-11T22:41:10.058Z,100.00
2022-10-11T22:46:34.044Z,100.00
2022-10-11T22:51:59.249Z,100.00
2022-10-11T22:57:31.047Z,100.00
2022-10-11T23:02:56.034Z,100.00
2022-10-11T23:08:22.024Z,100.00
2022-10-11T23:13:50.211Z,100.00
2022-10-11T23:19:14.020Z,100.00
2022-10-11T23:24:39.037Z,100.00
2022-10-11T23:30:06.063Z,100.00
2022-10-11T23:35:31.032Z,100.00
2022-10-11T23:40:58.335Z,100.00
2022-10-11T23:46:26.057Z,100.00
2022-10-11T23:51:50.056Z,100.00
2022-10-11T23:57:15.040Z,100.00
